Leland, IL (60531)

9:28 PM CST on December 21, 2014 (GMT -0600)
Weather at Chuck and Pats House | Change Station
CLOSE
Current Station
Personal Weather Station
Location: Serena, IL
Elevation: 633 ft
Nearby Weather Stations

Elev 633 ft 41.51 °N, 88.74 °W | Updated 12 minutes ago

Mostly Cloudy
Mostly Cloudy
35.0 °F
Feels Like 27 °F
N
11.0
Wind Variable Wind from SE
Gusts 15.0 mph

Today
High -- | Low -- °F
--% Chance of Precip.
Yesterday
High -- | Low -- °F
Precip. -- in
7:18 AM 4:28 PM
New Moon, 0% visible
Pressure 30.03 in
Visibility 6.0 miles
Clouds Scattered Clouds 2800 ft
Windchill 27 °F
Dew Point 32 °F
Humidity 89%
Rainfall 0.00 in
Snow Depth Not available.
UV 0 out of 12
Pollen .10 out of 12
Air Quality Not available.
Flu Activity Not available.
SPECI KARR 220304Z AUTO 14011KT 6SM HZ SCT028 01/M02 A3003 RMK AO2 T00111022

More Conditions Fewer Conditions

Pressure 30.03 in
Visibility 6.0 miles
Clouds Scattered Clouds 2800 ft
Windchill 27 °F
Dew Point 32 °F
Humidity 89%
Rainfall 0.00 in
Snow Depth Not available.
UV 0 out of 12
Pollen .10 out of 12
Air Quality Not available.
Flu Activity Not available.
SPECI KARR 220304Z AUTO 14011KT 6SM HZ SCT028 01/M02 A3003 RMK AO2 T00111022

More Conditions Fewer Conditions

10-Day Weather Forecast

Almanac

Astronomy

Dec. 21, 2014 Rise Set
Actual Time
Civil Twilight
Nautical Twilight
Astronomical Twilight
Moon
Length of Visible Light
Length of Day
Tomorrow will be .
, % of the Moon is Illuminated

Today's Extremes

State Highs State Lows

Community

WunderPhotos

Upload Photos

1,779,529 photos uploaded!

WunderBlogs® & News

Nearby

Air Quality

  Air Quality AQ Index Pollutant
Not available.

Snow Depth

Station Depth Elevation

Earthquake Activity

City Distance Mag. Time & Date
Minimum magnitude displayed is 2.5.

Coastal Water Temperatures

Place Temperature

Nearby Weather Stations